Flight Track Log - Related Links

Times and Time Zones

All times are in EDT time to prevent confusion due to time zone crossing. See the AAL2345 flight status page for this flight to view local times or setup timezone preferences in your user account.

Time Position Orientation Groundspeed Altitude Reporting Facility
EDT Latitude Longitude Course Direction KTS MPH feet Rate Location/Type
Sun 06:51:22 PM 41.9000 -87.9333 207° Southwest 199 229 3,200  Level Chicago TRACON
Sun 06:52:52 PM 41.8058 -87.9608 192° South 238 274 6,200 2,329 Climbing Chicago Center
Sun 06:53:54 PM 41.7314 -88.0025 203° Southwest 287 330 9,100 2,565 Climbing Chicago Center
Sun 06:54:00 PM 41.6536 -88.2939 197° South  Level Estimated
Sun 06:54:56 PM 41.6544 -88.0442 202° Southwest 299 344 11,500  Level Chicago Center
Sun 06:55:00 PM 41.5555 -88.2297 154° Southeast  Level FlightAware Approximate
Sun 06:55:58 PM 41.5756 -88.0872 202° Southwest 309 356 13,800  Level Chicago Center
Sun 06:56:00 PM 41.4740 -88.3268 207° Southwest  Level Estimated
Sun 06:57:00 PM 41.4717 -88.1428 202° Southwest 349 402 15,600  Level Chicago Center
Sun 06:58:02 PM 41.3800 -88.1922 202° Southwest 369 425 17,800 1,935 Climbing Chicago Center
Sun 06:59:04 PM 41.2822 -88.2344 198° South 375 432 19,600 1,742 Climbing Chicago Center
Sun 07:00:06 PM 41.1783 -88.2822 199° South 391 450 21,400 1,790 Climbing Chicago Center
Sun 07:01:08 PM 41.0519 -88.3394 199° South 401 461 23,300 1,694 Climbing Chicago Center
Sun 07:02:10 PM 40.9417 -88.3881 198° South 415 478 24,900 1,306 Climbing Chicago Center
Sun 07:03:12 PM 40.8367 -88.4567 206° Southwest 432 497 26,000 1,152 Climbing Chicago Center
Sun 07:04:15 PM 40.7386 -88.5483 215° Southwest 436 502 27,300 1,152 Climbing Chicago Center
Sun 07:05:17 PM 40.6344 -88.6372 213° Southwest 446 513 28,400 1,306 Climbing Chicago Center
Sun 07:06:19 PM 40.5072 -88.7458 213° Southwest 457 526 30,000 1,306 Climbing Chicago Center
Sun 07:07:21 PM 40.4139 -88.8256 213° Southwest 454 522 31,100 968 Climbing Chicago Center
Sun 07:08:23 PM 40.3092 -88.9136 213° Southwest 446 513 32,000 435 Climbing Chicago Center
Sun 07:09:25 PM 40.1814 -89.0217 213° Southwest 454 522 32,000  Level Chicago Center
Sun 07:10:19 PM 40.0950 -89.0922 212° Southwest 451 519 32,000  Level Kansas City Center
Sun 07:11:21 PM 39.9894 -89.1819 213° Southwest 451 519 32,000  Level Kansas City Center
Sun 07:12:23 PM 39.8836 -89.2711 213° Southwest 451 519 32,000  Level Kansas City Center
Sun 07:13:25 PM 39.7778 -89.3600 213° Southwest 451 519 32,000  Level Kansas City Center
Sun 07:14:27 PM 39.6500 -89.4667 213° Southwest 451 519 32,000  Level Kansas City Center
Sun 07:15:29 PM 39.5444 -89.5550 213° Southwest 452 520 32,000  Level Kansas City Center
Sun 07:16:31 PM 39.4394 -89.6406 212° Southwest 450 518 32,000  Level Kansas City Center
Sun 07:17:33 PM 39.3333 -89.7278 212° Southwest 450 518 32,000  Level Kansas City Center
Sun 07:18:35 PM 39.2264 -89.8158 213° Southwest 453 521 32,000  Level Kansas City Center
Sun 07:19:37 PM 39.1008 -89.9192 213° Southwest 454 522 32,000  Level Kansas City Center
Sun 07:20:39 PM 38.9939 -90.0089 213° Southwest 450 518 32,000  Level Kansas City Center
Sun 07:21:41 PM 38.9119 -90.1208 227° Southwest 442 509 32,000  Level Kansas City Center
Sun 07:22:43 PM 38.8283 -90.2367 227° Southwest 439 505 32,000  Level Kansas City Center
Sun 07:23:45 PM 38.7433 -90.3519 227° Southwest 441 507 32,000  Level Kansas City Center
Sun 07:24:47 PM 38.6558 -90.4658 225° Southwest 446 513 32,000  Level Kansas City Center
Sun 07:25:50 PM 38.5547 -90.6050 227° Southwest 443 510 32,000  Level Kansas City Center
Sun 07:26:52 PM 38.4789 -90.7075 227° Southwest 441 507 32,000  Level Kansas City Center
Sun 07:27:54 PM 38.3942 -90.8214 227° Southwest 443 510 32,000  Level Kansas City Center
Sun 07:28:56 PM 38.3103 -90.9333 226° Southwest 438 504 32,000  Level Kansas City Center
Sun 07:29:58 PM 38.2083 -91.0667 226° Southwest 438 504 32,000  Level Kansas City Center
Sun 07:31:00 PM 38.1300 -91.1694 226° Southwest 439 505 32,000  Level Kansas City Center
Sun 07:32:02 PM 38.0444 -91.2833 226° Southwest 441 507 32,000  Level Kansas City Center
Sun 07:33:04 PM 37.9597 -91.3961 226° Southwest 440 506 32,000  Level Kansas City Center
Sun 07:34:06 PM 37.8581 -91.5328 227° Southwest 441 507 32,000  Level Kansas City Center
Sun 07:35:08 PM 37.7708 -91.6447 225° Southwest 441 507 32,000  Level Kansas City Center
Sun 07:36:10 PM 37.6853 -91.7578 226° Southwest 442 509 32,000  Level Kansas City Center
Sun 07:37:12 PM 37.5986 -91.8694 226° Southwest 441 507 32,000  Level Kansas City Center
Sun 07:38:14 PM 37.5133 -91.9819 226° Southwest 439 505 32,000  Level Kansas City Center
Sun 07:39:16 PM 37.4239 -92.0869 223° Southwest 437 503 32,000  Level Kansas City Center
Sun 07:40:18 PM 37.3289 -92.1900 221° Southwest 443 510 32,000  Level Kansas City Center
Sun 07:41:20 PM 37.2369 -92.2942 222° Southwest 443 510 32,000  Level Kansas City Center
Sun 07:42:22 PM 37.1264 -92.4167 221° Southwest 440 506 32,000  Level Kansas City Center
Sun 07:43:24 PM 37.0339 -92.5186 221° Southwest 440 506 32,000  Level Kansas City Center
Sun 07:44:26 PM 36.9417 -92.6194 221° Southwest 438 504 32,000  Level Kansas City Center
Sun 07:45:09 PM 36.8683 -92.6961 220° Southwest 449 517 32,000  Level Memphis Center
Sun 07:46:09 PM 36.7961 -92.7769 222° Southwest 449 517 32,000  Level Memphis Center
Sun 07:47:10 PM 36.6958 -92.8853 221° Southwest 449 517 32,000  Level Memphis Center
Sun 07:48:09 PM 36.6019 -92.9881 221° Southwest 449 517 32,000  Level Memphis Center
Sun 07:49:09 PM 36.5122 -93.0886 222° Southwest 449 517 32,000  Level Memphis Center
Sun 07:51:09 PM 36.3225 -93.2856 220° Southwest 449 517 32,000  Level Memphis Center
Sun 07:52:09 PM 36.2325 -93.3853 222° Southwest 449 517 32,000  Level Memphis Center
Sun 07:53:09 PM 36.1383 -93.4847 220° Southwest 449 517 32,000  Level Memphis Center
Sun 07:54:09 PM 36.0419 -93.5864 220° Southwest 449 517 32,000  Level Memphis Center
Sun 07:55:09 PM 35.9517 -93.6853 222° Southwest 449 517 32,000  Level Memphis Center
Sun 07:56:09 PM 35.8572 -93.7814 220° Southwest 449 517 32,000  Level Memphis Center
Sun 07:57:09 PM 35.7628 -93.8825 221° Southwest 449 517 32,000  Level Memphis Center
Sun 07:58:09 PM 35.6661 -93.9806 220° Southwest 449 517 32,000  Level Memphis Center
Sun 07:59:09 PM 35.5736 -94.0758 220° Southwest 449 517 32,000  Level Memphis Center
Sun 08:00:09 PM 35.4808 -94.1739 221° Southwest 449 517 32,000  Level Memphis Center
Sun 08:01:09 PM 35.3753 -94.2836 220° Southwest 449 517 32,000  Level Memphis Center
Sun 08:02:09 PM 35.2844 -94.3836 222° Southwest 449 517 32,000  Level Memphis Center
Sun 08:03:09 PM 35.1894 -94.4858 221° Southwest 444 511 32,000  Level Memphis Center
Sun 08:03:54 PM 35.1217 -94.5656 224° Southwest 436 502 32,000  Level Fort Worth Center
Sun 08:04:54 PM 35.0281 -94.6675 222° Southwest 441 507 32,000  Level Fort Worth Center
Sun 08:05:54 PM 34.9464 -94.7564 222° Southwest 441 507 32,000  Level Fort Worth Center
Sun 08:06:54 PM 34.8544 -94.8528 221° Southwest 446 513 32,000  Level Fort Worth Center
Sun 08:07:54 PM 34.7583 -94.9492 219° Southwest 446 513 32,000 -650 Level Fort Worth Center
Sun 08:08:54 PM 34.6644 -95.0456 220° Southwest 452 520 30,700 -1,300 Descending Fort Worth Center
Sun 08:09:54 PM 34.5700 -95.1414 220° Southwest 447 514 29,400 -1,200 Descending Fort Worth Center
Sun 08:10:54 PM 34.4739 -95.2394 220° Southwest 447 514 28,300 -1,000 Descending Fort Worth Center
Sun 08:11:54 PM 34.3775 -95.3403 221° Southwest 453 521 27,400 -950 Descending Fort Worth Center
Sun 08:12:54 PM 34.2747 -95.4406 219° Southwest 465 535 26,400 -1,000 Descending Fort Worth Center
Sun 08:13:54 PM 34.1761 -95.5383 219° Southwest 465 535 25,400 -1,050 Descending Fort Worth Center
Sun 08:14:54 PM 34.0756 -95.6483 222° Southwest 465 535 24,300 -1,050 Descending Fort Worth Center
Sun 08:15:54 PM 33.9808 -95.7428 220° Southwest 443 510 23,300 -1,050 Descending Fort Worth Center
Sun 08:16:54 PM 33.8861 -95.8397 220° Southwest 443 510 22,200 -1,400 Descending Fort Worth Center
Sun 08:17:54 PM 33.7994 -95.9214 218° Southwest 449 517 20,500 -1,900 Descending Fort Worth Center
Sun 08:18:54 PM 33.6961 -96.0203 219° Southwest 442 509 18,400 -2,150 Descending Fort Worth Center
Sun 08:19:54 PM 33.6197 -96.0989 221° Southwest 425 489 16,200 -2,100 Descending Fort Worth Center
Sun 08:20:54 PM 33.5267 -96.1900 219° Southwest 404 465 14,200 -1,950 Descending Fort Worth Center
Sun 08:21:54 PM 33.4586 -96.2581 220° Southwest 367 422 12,300 -1,100 Descending Fort Worth Center
Sun 08:22:54 PM 33.3925 -96.3361 225° Southwest 336 387 12,000 -500 Descending Fort Worth Center
Sun 08:23:54 PM 33.3469 -96.4039 231° Southwest 300 345 11,300 -1,050 Descending Fort Worth Center
Sun 08:24:54 PM 33.3039 -96.4989 242° Southwest 300 345 9,900 -1,300 Descending Fort Worth Center
Sun 08:25:54 PM 33.2794 -96.5836 251° West 281 323 8,700 -1,300 Descending Fort Worth Center
Sun 08:26:54 PM 33.2611 -96.6583 254° West 269 310 7,300 -1,200 Descending Fort Worth Center
Sun 08:27:54 PM 33.2344 -96.7331 247° West 240 276 6,300 -1,050 Descending Fort Worth Center
Sun 08:28:54 PM 33.2158 -96.7953 250° West 228 262 5,200 -750 Descending Fort Worth Center
Sun 08:29:54 PM 33.1914 -96.8697 249° West 228 262 4,800 -500 Descending Fort Worth Center
Sun 08:30:54 PM 33.1747 -96.9244 250° West 211 243 4,200 -850 Descending Fort Worth Center
Sun 08:31:54 PM 33.1542 -96.9892 249° West 198 228 3,100 -650 Descending Fort Worth Center
Sun 08:32:54 PM 33.1272 -97.0239 227° Southwest 171 197 2,900 -50 Descending Fort Worth Center
Sun 08:33:54 PM 33.0769 -97.0267 183° South 160 184 3,000 69 Climbing Fort Worth Center
Sun 08:34:21 PM 33.0500 -97.0167 163° South 167 192 3,000 -483 Level Dallas / Fort Worth TRACON
Sun 08:35:21 PM 33.0167 -97.0167 180° South 168 193 2,300 -750 Descending Dallas / Fort Worth TRACON
Sun 08:36:21 PM 32.9667 -97.0167 180° South 144 166 1,500 -750 Descending Dallas / Fort Worth TRACON
Sun 08:37:21 PM 32.9333 -97.0167 180° South 128 147 800 -700 Descending Dallas / Fort Worth TRACON
Sun 08:39:00 PM 32.8968 -97.0380 232° Southwest  Level Estimated
Sun 08:46:00 PM 32.8968 -97.0380 232° Southwest  Level Estimated

Login

Don't have an account? Register now (free) for customized features, flight alerts, and more!